sensor_id;sensor_type;location;lat;lon;timestamp;pressure;altitude;pressure_sealevel;temperature;humidity
36234;BME280;43467;50.890;5.982;2023-02-03T00:00:55;101248.44;;;9.44;86.81
36234;BME280;43467;50.890;5.982;2023-02-03T00:03:21;101242.19;;;9.47;86.58
36234;BME280;43467;50.890;5.982;2023-02-03T00:05:46;101251.06;;;9.44;86.90
36234;BME280;43467;50.890;5.982;2023-02-03T00:08:13;101232.66;;;9.41;87.05
36234;BME280;43467;50.890;5.982;2023-02-03T00:10:40;101215.34;;;9.28;87.33
36234;BME280;43467;50.890;5.982;2023-02-03T00:13:06;101205.47;;;9.36;87.33
36234;BME280;43467;50.890;5.982;2023-02-03T00:15:32;101205.25;;;9.45;87.08
36234;BME280;43467;50.890;5.982;2023-02-03T00:17:58;101197.31;;;9.45;86.80
36234;BME280;43467;50.890;5.982;2023-02-03T00:20:23;101193.81;;;9.43;86.74
36234;BME280;43467;50.890;5.982;2023-02-03T00:22:50;101190.28;;;9.44;87.07
36234;BME280;43467;50.890;5.982;2023-02-03T00:25:15;101190.47;;;9.37;87.32
36234;BME280;43467;50.890;5.982;2023-02-03T00:27:41;101163.31;;;9.30;87.29
36234;BME280;43467;50.890;5.982;2023-02-03T00:30:07;101179.03;;;9.36;87.45
36234;BME280;43467;50.890;5.982;2023-02-03T00:32:32;101176.53;;;9.30;87.66
36234;BME280;43467;50.890;5.982;2023-02-03T00:34:58;101180.16;;;9.26;87.78
36234;BME280;43467;50.890;5.982;2023-02-03T00:37:23;101183.66;;;9.28;87.63
36234;BME280;43467;50.890;5.982;2023-02-03T00:39:49;101183.66;;;9.28;87.68
36234;BME280;43467;50.890;5.982;2023-02-03T00:42:15;101177.56;;;9.24;87.70
36234;BME280;43467;50.890;5.982;2023-02-03T00:44:41;101185.44;;;9.26;87.64
36234;BME280;43467;50.890;5.982;2023-02-03T00:47:06;101181.13;;;9.23;87.79
36234;BME280;43467;50.890;5.982;2023-02-03T00:49:32;101188.66;;;9.39;87.62
36234;BME280;43467;50.890;5.982;2023-02-03T00:51:58;101180.91;;;9.31;87.56
36234;BME280;43467;50.890;5.982;2023-02-03T00:54:23;101177.47;;;9.29;87.22
36234;BME280;43467;50.890;5.982;2023-02-03T00:56:48;101176.47;;;9.33;87.19
36234;BME280;43467;50.890;5.982;2023-02-03T00:59:14;101165.16;;;9.28;87.53
36234;BME280;43467;50.890;5.982;2023-02-03T01:01:39;101168.69;;;9.27;87.58
36234;BME280;43467;50.890;5.982;2023-02-03T01:04:05;101161.84;;;9.18;87.70
36234;BME280;43467;50.890;5.982;2023-02-03T01:06:30;101188.06;;;9.27;87.52
36234;BME280;43467;50.890;5.982;2023-02-03T01:08:55;101171.19;;;9.33;87.35
36234;BME280;43467;50.890;5.982;2023-02-03T01:11:23;101165.16;;;9.28;87.08
36234;BME280;43467;50.890;5.982;2023-02-03T01:13:50;101171.41;;;9.24;87.90
36234;BME280;43467;50.890;5.982;2023-02-03T01:16:18;101177.50;;;9.27;87.58
36234;BME280;43467;50.890;5.982;2023-02-03T01:18:44;101185.41;;;9.27;87.41
36234;BME280;43467;50.890;5.982;2023-02-03T01:21:15;101200.59;;;9.19;87.82
36234;BME280;43467;50.890;5.982;2023-02-03T01:23:41;101207.63;;;9.20;88.19
36234;BME280;43467;50.890;5.982;2023-02-03T01:26:11;101210.38;;;9.16;88.18
36234;BME280;43467;50.890;5.982;2023-02-03T01:28:36;101221.72;;;9.19;88.24
36234;BME280;43467;50.890;5.982;2023-02-03T01:31:17;101219.97;;;9.20;88.09
36234;BME280;43467;50.890;5.982;2023-02-03T01:33:44;101216.38;;;9.22;87.93
36234;BME280;43467;50.890;5.982;2023-02-03T01:36:17;101217.31;;;9.20;88.24
36234;BME280;43467;50.890;5.982;2023-02-03T01:38:43;101206.88;;;9.14;88.36
36234;BME280;43467;50.890;5.982;2023-02-03T01:41:12;101213.88;;;9.16;88.38
36234;BME280;43467;50.890;5.982;2023-02-03T01:43:40;101229.47;;;9.27;88.04
36234;BME280;43467;50.890;5.982;2023-02-03T01:48:57;101232.31;;;9.19;88.27
36234;BME280;43467;50.890;5.982;2023-02-03T01:51:25;101235.91;;;9.17;88.54
36234;BME280;43467;50.890;5.982;2023-02-03T01:53:51;101225.09;;;9.26;88.41
36234;BME280;43467;50.890;5.982;2023-02-03T01:56:18;101234.94;;;9.19;88.75
36234;BME280;43467;50.890;5.982;2023-02-03T01:58:45;101234.78;;;9.25;88.40
36234;BME280;43467;50.890;5.982;2023-02-03T02:01:11;101223.47;;;9.20;88.77
36234;BME280;43467;50.890;5.982;2023-02-03T02:03:40;101226.06;;;9.22;88.57
36234;BME280;43467;50.890;5.982;2023-02-03T02:06:09;101241.88;;;9.25;88.46
36234;BME280;43467;50.890;5.982;2023-02-03T02:08:37;101218.31;;;9.16;88.80
36234;BME280;43467;50.890;5.982;2023-02-03T02:11:05;101208.50;;;9.21;88.20
36234;BME280;43467;50.890;5.982;2023-02-03T02:13:32;101207.38;;;9.29;87.84
36234;BME280;43467;50.890;5.982;2023-02-03T02:22:11;101214.69;;;9.20;88.26
36234;BME280;43467;50.890;5.982;2023-02-03T02:27:35;101225.06;;;9.27;87.93
36234;BME280;43467;50.890;5.982;2023-02-03T02:30:16;101212.81;;;9.23;88.04
36234;BME280;43467;50.890;5.982;2023-02-03T02:35:43;101203.44;;;9.12;88.06
36234;BME280;43467;50.890;5.982;2023-02-03T02:41:03;101193.78;;;9.09;88.20
36234;BME280;43467;50.890;5.982;2023-02-03T02:43:39;101202.34;;;9.20;87.84
36234;BME280;43467;50.890;5.982;2023-02-03T02:46:10;101184.25;;;9.04;88.33
36234;BME280;43467;50.890;5.982;2023-02-03T02:49:15;101197.06;;;9.20;87.87
36234;BME280;43467;50.890;5.982;2023-02-03T02:51:43;101185.81;;;9.12;88.10
36234;BME280;43467;50.890;5.982;2023-02-03T02:54:13;101193.66;;;9.15;88.24
36234;BME280;43467;50.890;5.982;2023-02-03T02:56:42;101188.47;;;9.11;88.23
36234;BME280;43467;50.890;5.982;2023-02-03T02:59:09;101186.63;;;9.14;87.91
36234;BME280;43467;50.890;5.982;2023-02-03T03:01:35;101193.38;;;9.26;87.65
36234;BME280;43467;50.890;5.982;2023-02-03T03:04:04;101176.03;;;9.16;87.56
36234;BME280;43467;50.890;5.982;2023-02-03T03:06:47;101217.16;;;9.26;87.66
36234;BME280;43467;50.890;5.982;2023-02-03T03:09:18;101201.31;;;9.26;87.71
36234;BME280;43467;50.890;5.982;2023-02-03T03:11:50;101212.91;;;9.20;87.92
36234;BME280;43467;50.890;5.982;2023-02-03T03:14:19;101220.78;;;9.22;87.72
36234;BME280;43467;50.890;5.982;2023-02-03T03:16:53;101217.25;;;9.21;87.75
36234;BME280;43467;50.890;5.982;2023-02-03T03:19:24;101219.78;;;9.27;87.41
36234;BME280;43467;50.890;5.982;2023-02-03T03:21:54;101209.28;;;9.24;87.61
36234;BME280;43467;50.890;5.982;2023-02-03T03:24:26;101190.91;;;9.20;88.00
36234;BME280;43467;50.890;5.982;2023-02-03T03:27:00;101197.88;;;9.22;87.66
36234;BME280;43467;50.890;5.982;2023-02-03T03:29:32;101203.25;;;9.18;87.77
36234;BME280;43467;50.890;5.982;2023-02-03T03:32:01;101226.81;;;9.27;87.72
36234;BME280;43467;50.890;5.982;2023-02-03T03:34:28;101213.72;;;9.22;87.93
36234;BME280;43467;50.890;5.982;2023-02-03T03:39:46;101216.16;;;9.31;87.36
36234;BME280;43467;50.890;5.982;2023-02-03T03:42:37;101223.31;;;9.26;87.74
36234;BME280;43467;50.890;5.982;2023-02-03T03:48:09;101217.84;;;9.34;87.52
36234;BME280;43467;50.890;5.982;2023-02-03T03:50:44;101209.19;;;9.27;87.55
36234;BME280;43467;50.890;5.982;2023-02-03T03:53:14;101190.22;;;9.12;88.62
36234;BME280;43467;50.890;5.982;2023-02-03T03:55:42;101181.41;;;9.11;88.35
36234;BME280;43467;50.890;5.982;2023-02-03T03:58:12;101179.66;;;9.12;87.99
36234;BME280;43467;50.890;5.982;2023-02-03T04:00:39;101190.03;;;9.19;87.82
36234;BME280;43467;50.890;5.982;2023-02-03T04:03:16;101192.66;;;9.21;87.62
36234;BME280;43467;50.890;5.982;2023-02-03T04:05:43;101193.66;;;9.15;87.90
36234;BME280;43467;50.890;5.982;2023-02-03T04:08:08;101192.66;;;9.21;88.01
36234;BME280;43467;50.890;5.982;2023-02-03T04:10:37;101179.56;;;9.15;88.13
36234;BME280;43467;50.890;5.982;2023-02-03T04:13:03;101175.19;;;9.14;88.05
36234;BME280;43467;50.890;5.982;2023-02-03T04:15:30;101182.13;;;9.18;88.04
36234;BME280;43467;50.890;5.982;2023-02-03T04:17:55;101181.34;;;9.14;88.07
36234;BME280;43467;50.890;5.982;2023-02-03T04:20:22;101174.16;;;9.21;88.11
36234;BME280;43467;50.890;5.982;2023-02-03T04:22:48;101166.22;;;9.21;87.91
36234;BME280;43467;50.890;5.982;2023-02-03T04:25:13;101163.00;;;9.08;88.51
36234;BME280;43467;50.890;5.982;2023-02-03T04:27:39;101157.63;;;9.13;88.41
36234;BME280;43467;50.890;5.982;2023-02-03T04:30:05;101159.41;;;9.11;88.48
36234;BME280;43467;50.890;5.982;2023-02-03T04:32:30;101160.41;;;9.07;88.68
36234;BME280;43467;50.890;5.982;2023-02-03T04:34:57;101168.09;;;9.16;88.29
36234;BME280;43467;50.890;5.982;2023-02-03T04:37:23;101171.63;;;9.15;88.06
36234;BME280;43467;50.890;5.982;2023-02-03T04:39:51;101174.88;;;9.26;87.57
36234;BME280;43467;50.890;5.982;2023-02-03T04:42:17;101173.97;;;9.27;87.41
36234;BME280;43467;50.890;5.982;2023-02-03T04:44:43;101171.34;;;9.27;87.19
36234;BME280;43467;50.890;5.982;2023-02-03T04:47:08;101173.31;;;9.19;87.62
36234;BME280;43467;50.890;5.982;2023-02-03T04:49:33;101186.44;;;9.22;87.26
36234;BME280;43467;50.890;5.982;2023-02-03T04:51:59;101197.88;;;9.22;87.31
36234;BME280;43467;50.890;5.982;2023-02-03T04:54:24;101197.84;;;9.24;87.62
36234;BME280;43467;50.890;5.982;2023-02-03T04:56:50;101187.34;;;9.21;87.46
36234;BME280;43467;50.890;5.982;2023-02-03T04:59:15;101168.31;;;9.07;87.78
36234;BME280;43467;50.890;5.982;2023-02-03T05:01:41;101176.06;;;9.14;87.46
36234;BME280;43467;50.890;5.982;2023-02-03T05:04:06;101195.34;;;9.18;87.55
36234;BME280;43467;50.890;5.982;2023-02-03T05:06:32;101194.53;;;9.14;87.66
36234;BME280;43467;50.890;5.982;2023-02-03T05:08:58;101206.56;;;9.27;87.18
36234;BME280;43467;50.890;5.982;2023-02-03T05:11:23;101218.00;;;9.28;87.19
36234;BME280;43467;50.890;5.982;2023-02-03T05:13:49;101204.81;;;9.26;87.19
36234;BME280;43467;50.890;5.982;2023-02-03T05:16:14;101200.59;;;9.19;87.35
36234;BME280;43467;50.890;5.982;2023-02-03T05:18:40;101202.28;;;9.22;87.44
36234;BME280;43467;50.890;5.982;2023-02-03T05:21:06;101202.38;;;9.19;87.29
36234;BME280;43467;50.890;5.982;2023-02-03T05:23:31;101194.44;;;9.19;87.46
36234;BME280;43467;50.890;5.982;2023-02-03T05:25:57;101200.69;;;9.15;87.83
36234;BME280;43467;50.890;5.982;2023-02-03T05:28:22;101209.41;;;9.18;87.51
36234;BME280;43467;50.890;5.982;2023-02-03T05:30:48;101204.22;;;9.15;87.55
36234;BME280;43467;50.890;5.982;2023-02-03T05:33:13;101191.00;;;9.15;87.50
36234;BME280;43467;50.890;5.982;2023-02-03T05:35:38;101202.38;;;9.19;87.45
36234;BME280;43467;50.890;5.982;2023-02-03T05:38:04;101192.66;;;9.21;87.40
36234;BME280;43467;50.890;5.982;2023-02-03T05:40:29;101183.16;;;9.12;87.12
36234;BME280;43467;50.890;5.982;2023-02-03T05:43:13;101186.50;;;9.20;87.00
36234;BME280;43467;50.890;5.982;2023-02-03T05:45:38;101196.13;;;9.21;87.07
36234;BME280;43467;50.890;5.982;2023-02-03T05:48:04;101186.44;;;9.22;87.05
36234;BME280;43467;50.890;5.982;2023-02-03T05:50:31;101200.41;;;9.27;86.42
36234;BME280;43467;50.890;5.982;2023-02-03T05:53:01;101198.72;;;9.24;86.47
36234;BME280;43467;50.890;5.982;2023-02-03T05:55:28;101198.84;;;9.18;86.69
36234;BME280;43467;50.890;5.982;2023-02-03T05:57:54;101206.09;;;9.10;86.94
36234;BME280;43467;50.890;5.982;2023-02-03T06:00:21;101206.00;;;9.15;86.77
36234;BME280;43467;50.890;5.982;2023-02-03T06:02:53;101202.47;;;9.14;86.79
36234;BME280;43467;50.890;5.982;2023-02-03T06:05:20;101218.09;;;9.23;86.50
36234;BME280;43467;50.890;5.982;2023-02-03T06:07:46;101222.69;;;9.17;86.93
36234;BME280;43467;50.890;5.982;2023-02-03T06:10:11;101219.22;;;9.13;87.21
36234;BME280;43467;50.890;5.982;2023-02-03T06:12:37;101230.56;;;9.18;86.71
36234;BME280;43467;50.890;5.982;2023-02-03T06:15:03;101216.47;;;9.18;86.84
36234;BME280;43467;50.890;5.982;2023-02-03T06:17:28;101212.16;;;9.14;86.65
36234;BME280;43467;50.890;5.982;2023-02-03T06:19:54;101209.88;;;9.00;86.42
36234;BME280;43467;50.890;5.982;2023-02-03T06:22:19;101221.19;;;9.05;86.61
36234;BME280;43467;50.890;5.982;2023-02-03T06:24:45;101237.63;;;9.18;86.41
36234;BME280;43467;50.890;5.982;2023-02-03T06:27:12;101233.38;;;9.12;86.00
36234;BME280;43467;50.890;5.982;2023-02-03T06:29:38;101231.69;;;9.08;86.27
36234;BME280;43467;50.890;5.982;2023-02-03T06:32:03;101213.34;;;9.01;86.20
36234;BME280;43467;50.890;5.982;2023-02-03T06:34:29;101236.06;;;9.09;86.08
36234;BME280;43467;50.890;5.982;2023-02-03T06:36:54;101228.03;;;9.14;85.60
36234;BME280;43467;50.890;5.982;2023-02-03T06:39:20;101236.09;;;9.08;85.62
36234;BME280;43467;50.890;5.982;2023-02-03T06:41:45;101245.59;;;9.16;85.36
36234;BME280;43467;50.890;5.982;2023-02-03T06:44:10;101235.84;;;9.18;85.23
36234;BME280;43467;50.890;5.982;2023-02-03T06:46:36;101233.28;;;9.15;85.20
36234;BME280;43467;50.890;5.982;2023-02-03T06:49:02;101228.94;;;9.13;85.16
36234;BME280;43467;50.890;5.982;2023-02-03T06:51:27;101217.25;;;9.21;84.84
36234;BME280;43467;50.890;5.982;2023-02-03T06:53:52;101196.50;;;9.06;84.39
36234;BME280;43467;50.890;5.982;2023-02-03T06:56:18;101221.72;;;9.21;84.33
36234;BME280;43467;50.890;5.982;2023-02-03T06:58:43;101215.56;;;9.20;84.27
36234;BME280;43467;50.890;5.982;2023-02-03T07:01:09;101203.38;;;9.13;84.30
36234;BME280;43467;50.890;5.982;2023-02-03T07:03:34;101201.59;;;9.14;84.01
36234;BME280;43467;50.890;5.982;2023-02-03T07:05:59;101211.34;;;9.12;84.03
36234;BME280;43467;50.890;5.982;2023-02-03T07:08:25;101211.16;;;9.19;83.82
36234;BME280;43467;50.890;5.982;2023-02-03T07:10:54;101190.06;;;9.18;83.65
36234;BME280;43467;50.890;5.982;2023-02-03T07:13:19;101167.47;;;9.05;83.76
36234;BME280;43467;50.890;5.982;2023-02-03T07:15:44;101161.25;;;9.09;83.83
36234;BME280;43467;50.890;5.982;2023-02-03T07:18:10;101185.63;;;9.18;83.56
36234;BME280;43467;50.890;5.982;2023-02-03T07:20:35;101188.16;;;9.23;83.48
36234;BME280;43467;50.890;5.982;2023-02-03T07:23:00;101197.06;;;9.20;83.40
36234;BME280;43467;50.890;5.982;2023-02-03T07:25:26;101186.53;;;9.17;83.31
36234;BME280;43467;50.890;5.982;2023-02-03T07:27:52;101170.88;;;9.10;83.43
36234;BME280;43467;50.890;5.982;2023-02-03T07:30:17;101193.56;;;9.18;83.30
36234;BME280;43467;50.890;5.982;2023-02-03T07:32:47;101191.03;;;9.14;83.23
36234;BME280;43467;50.890;5.982;2023-02-03T07:35:13;101192.69;;;9.18;83.01
36234;BME280;43467;50.890;5.982;2023-02-03T07:37:39;101200.56;;;9.21;83.15
36234;BME280;43467;50.890;5.982;2023-02-03T07:40:05;101216.34;;;9.24;83.18
36234;BME280;43467;50.890;5.982;2023-02-03T07:42:30;101219.75;;;9.29;83.21
36234;BME280;43467;50.890;5.982;2023-02-03T07:44:56;101224.16;;;9.28;82.94
36234;BME280;43467;50.890;5.982;2023-02-03T07:47:21;101210.25;;;9.20;83.25
36234;BME280;43467;50.890;5.982;2023-02-03T07:49:46;101218.13;;;9.22;82.92
36234;BME280;43467;50.890;5.982;2023-02-03T07:52:12;101216.56;;;9.15;83.38
36234;BME280;43467;50.890;5.982;2023-02-03T07:54:37;101230.41;;;9.24;83.09
36234;BME280;43467;50.890;5.982;2023-02-03T07:57:02;101237.31;;;9.30;82.68
36234;BME280;43467;50.890;5.982;2023-02-03T07:59:28;101231.25;;;9.26;82.42
36234;BME280;43467;50.890;5.982;2023-02-03T08:01:53;101253.06;;;9.34;82.76
36234;BME280;43467;50.890;5.982;2023-02-03T08:04:21;101254.84;;;9.34;82.34
36234;BME280;43467;50.890;5.982;2023-02-03T08:06:46;101252.25;;;9.32;82.56
36234;BME280;43467;50.890;5.982;2023-02-03T08:09:11;101261.72;;;9.41;82.14
36234;BME280;43467;50.890;5.982;2023-02-03T08:11:37;101270.50;;;9.42;82.26
36234;BME280;43467;50.890;5.982;2023-02-03T08:14:02;101261.72;;;9.41;82.29
36234;BME280;43467;50.890;5.982;2023-02-03T08:16:28;101256.38;;;9.43;82.20
36234;BME280;43467;50.890;5.982;2023-02-03T08:18:53;101242.34;;;9.41;82.32
36234;BME280;43467;50.890;5.982;2023-02-03T08:21:19;101261.94;;;9.32;82.70
36234;BME280;43467;50.890;5.982;2023-02-03T08:23:44;101262.75;;;9.34;82.68
36234;BME280;43467;50.890;5.982;2023-02-03T08:26:09;101244.44;;;9.28;82.91
36234;BME280;43467;50.890;5.982;2023-02-03T08:28:35;101263.72;;;9.31;82.94
36234;BME280;43467;50.890;5.982;2023-02-03T08:31:00;101273.28;;;9.37;82.49
36234;BME280;43467;50.890;5.982;2023-02-03T08:33:26;101262.72;;;9.37;82.51
36234;BME280;43467;50.890;5.982;2023-02-03T08:35:52;101274.78;;;9.47;82.37
36234;BME280;43467;50.890;5.982;2023-02-03T08:38:18;101273.81;;;9.50;82.29
36234;BME280;43467;50.890;5.982;2023-02-03T08:40:43;101266.81;;;9.49;82.08
36234;BME280;43467;50.890;5.982;2023-02-03T08:43:09;101254.81;;;9.36;82.32
36234;BME280;43467;50.890;5.982;2023-02-03T08:45:35;101259.09;;;9.41;82.19
36234;BME280;43467;50.890;5.982;2023-02-03T08:48:00;101270.44;;;9.45;82.12
36234;BME280;43467;50.890;5.982;2023-02-03T08:50:26;101278.50;;;9.40;82.36
36234;BME280;43467;50.890;5.982;2023-02-03T08:52:51;101289.06;;;9.40;82.76
36234;BME280;43467;50.890;5.982;2023-02-03T08:55:16;101284.59;;;9.42;82.29
36234;BME280;43467;50.890;5.982;2023-02-03T08:57:42;101296.94;;;9.42;82.44
36234;BME280;43467;50.890;5.982;2023-02-03T09:00:09;101290.03;;;9.36;82.70
36234;BME280;43467;50.890;5.982;2023-02-03T09:02:34;101292.31;;;9.50;81.96
36234;BME280;43467;50.890;5.982;2023-02-03T09:05:00;101298.34;;;9.56;82.07
36234;BME280;43467;50.890;5.982;2023-02-03T09:07:25;101289.75;;;9.47;82.29
36234;BME280;43467;50.890;5.982;2023-02-03T09:09:51;101285.38;;;9.46;82.50
36234;BME280;43467;50.890;5.982;2023-02-03T09:12:16;101309.16;;;9.47;82.62
36234;BME280;43467;50.890;5.982;2023-02-03T09:14:42;101295.13;;;9.44;82.65
36234;BME280;43467;50.890;5.982;2023-02-03T09:17:08;101295.03;;;9.48;83.09
36234;BME280;43467;50.890;5.982;2023-02-03T09:19:34;101313.56;;;9.47;83.13
36234;BME280;43467;50.890;5.982;2023-02-03T09:22:00;101303.03;;;9.45;83.76
36234;BME280;43467;50.890;5.982;2023-02-03T09:24:25;101313.53;;;9.48;83.91
36234;BME280;43467;50.890;5.982;2023-02-03T09:26:51;101302.06;;;9.49;84.28
36234;BME280;43467;50.890;5.982;2023-02-03T09:29:16;101292.50;;;9.42;84.62
36234;BME280;43467;50.890;5.982;2023-02-03T09:31:42;101292.50;;;9.42;85.43
36234;BME280;43467;50.890;5.982;2023-02-03T09:34:08;101294.53;;;9.32;85.96
36234;BME280;43467;50.890;5.982;2023-02-03T09:36:33;101281.41;;;9.28;87.24
36234;BME280;43467;50.890;5.982;2023-02-03T09:38:59;101313.91;;;9.33;87.52
36234;BME280;43467;50.890;5.982;2023-02-03T09:46:48;101298.38;;;9.18;89.83
36234;BME280;43467;50.890;5.982;2023-02-03T09:49:26;101303.66;;;9.18;90.66
36234;BME280;43467;50.890;5.982;2023-02-03T09:52:03;101298.34;;;9.19;90.74
36234;BME280;43467;50.890;5.982;2023-02-03T09:56:58;101309.03;;;9.15;91.65
36234;BME280;43467;50.890;5.982;2023-02-03T09:59:25;101308.94;;;9.19;92.29
36234;BME280;43467;50.890;5.982;2023-02-03T10:02:12;101308.16;;;9.14;92.73
36234;BME280;43467;50.890;5.982;2023-02-03T10:10:38;101310.38;;;8.94;95.95
36234;BME280;43467;50.890;5.982;2023-02-03T10:16:03;101309.38;;;9.00;97.01
36234;BME280;43467;50.890;5.982;2023-02-03T10:18:39;101316.81;;;8.81;98.95
36234;BME280;43467;50.890;5.982;2023-02-03T10:21:36;101314.97;;;8.84;99.39
36234;BME280;43467;50.890;5.982;2023-02-03T10:24:10;101321.03;;;8.90;99.53
36234;BME280;43467;50.890;5.982;2023-02-03T10:26:38;101335.25;;;8.84;99.67
36234;BME280;43467;50.890;5.982;2023-02-03T10:29:30;101344.72;;;8.94;99.90
36234;BME280;43467;50.890;5.982;2023-02-03T10:31:59;101361.41;;;8.96;99.80
36234;BME280;43467;50.890;5.982;2023-02-03T10:34:24;101333.50;;;8.83;100.00
36234;BME280;43467;50.890;5.982;2023-02-03T10:36:54;101361.50;;;8.92;100.00
36234;BME280;43467;50.890;5.982;2023-02-03T10:39:25;101358.84;;;8.92;100.00
36234;BME280;43467;50.890;5.982;2023-02-03T10:41:52;101362.31;;;8.94;100.00
36234;BME280;43467;50.890;5.982;2023-02-03T10:44:18;101367.78;;;8.86;100.00
36234;BME280;43467;50.890;5.982;2023-02-03T10:46:44;101368.38;;;8.99;100.00
36234;BME280;43467;50.890;5.982;2023-02-03T10:49:11;101360.47;;;8.99;100.00
36234;BME280;43467;50.890;5.982;2023-02-03T10:51:48;101353.44;;;8.98;100.00
36234;BME280;43467;50.890;5.982;2023-02-03T10:54:34;101343.91;;;8.91;100.00
36234;BME280;43467;50.890;5.982;2023-02-03T10:57:33;101334.22;;;8.91;100.00
36234;BME280;43467;50.890;5.982;2023-02-03T11:00:04;101321.03;;;8.90;100.00
36234;BME280;43467;50.890;5.982;2023-02-03T11:02:30;101317.59;;;8.86;100.00
36234;BME280;43467;50.890;5.982;2023-02-03T11:05:18;101331.50;;;8.94;100.00
36234;BME280;43467;50.890;5.982;2023-02-03T11:07:45;101330.47;;;9.01;100.00
36234;BME280;43467;50.890;5.982;2023-02-03T11:10:27;101326.03;;;9.03;100.00
36234;BME280;43467;50.890;5.982;2023-02-03T11:15:41;101312.22;;;8.89;100.00
36234;BME280;43467;50.890;5.982;2023-02-03T11:18:30;101313.00;;;8.96;100.00
36234;BME280;43467;50.890;5.982;2023-02-03T11:20:58;101301.66;;;8.89;100.00
36234;BME280;43467;50.890;5.982;2023-02-03T11:23:24;101318.31;;;8.93;100.00
36234;BME280;43467;50.890;5.982;2023-02-03T11:25:50;101297.34;;;8.86;100.00
36234;BME280;43467;50.890;5.982;2023-02-03T11:28:16;101310.44;;;8.91;100.00
36234;BME280;43467;50.890;5.982;2023-02-03T11:30:42;101307.66;;;8.97;100.00
36234;BME280;43467;50.890;5.982;2023-02-03T11:33:17;101305.09;;;8.93;100.00
36234;BME280;43467;50.890;5.982;2023-02-03T11:35:57;101303.44;;;8.88;100.00
36234;BME280;43467;50.890;5.982;2023-02-03T11:38:34;101287.41;;;8.98;100.00
36234;BME280;43467;50.890;5.982;2023-02-03T11:41:04;101291.81;;;8.97;100.00
36234;BME280;43467;50.890;5.982;2023-02-03T11:43:30;101293.56;;;8.98;100.00
36234;BME280;43467;50.890;5.982;2023-02-03T11:46:14;101301.50;;;8.97;100.00
36234;BME280;43467;50.890;5.982;2023-02-03T11:49:01;101303.94;;;9.06;100.00
36234;BME280;43467;50.890;5.982;2023-02-03T11:52:04;101301.50;;;8.97;100.00
36234;BME280;43467;50.890;5.982;2023-02-03T11:57:31;101307.47;;;9.05;100.00
36234;BME280;43467;50.890;5.982;2023-02-03T12:00:33;101294.53;;;8.94;100.00
36234;BME280;43467;50.890;5.982;2023-02-03T12:03:17;101311.88;;;9.06;100.00
36234;BME280;43467;50.890;5.982;2023-02-03T12:08:50;101326.81;;;9.08;100.00
36234;BME280;43467;50.890;5.982;2023-02-03T12:22:42;101320.47;;;9.15;100.00
36234;BME280;43467;50.890;5.982;2023-02-03T12:25:24;101323.22;;;9.11;100.00
36234;BME280;43467;50.890;5.982;2023-02-03T12:30:55;101324.00;;;9.14;100.00
36234;BME280;43467;50.890;5.982;2023-02-03T12:33:32;101324.97;;;9.12;100.00
36234;BME280;43467;50.890;5.982;2023-02-03T12:36:37;101333.66;;;9.17;100.00
36234;BME280;43467;50.890;5.982;2023-02-03T12:38:59;101340.63;;;9.19;100.00
36234;BME280;43467;50.890;5.982;2023-02-03T12:41:34;101319.47;;;9.21;100.00
36234;BME280;43467;50.890;5.982;2023-02-03T12:44:06;101317.66;;;9.23;100.00
36234;BME280;43467;50.890;5.982;2023-02-03T12:46:40;101322.03;;;9.24;100.00
36234;BME280;43467;50.890;5.982;2023-02-03T12:49:40;101313.25;;;9.22;100.00
36234;BME280;43467;50.890;5.982;2023-02-03T12:52:21;101314.88;;;9.29;100.00
36234;BME280;43467;50.890;5.982;2023-02-03T12:55:03;101312.38;;;9.23;100.00
36234;BME280;43467;50.890;5.982;2023-02-03T12:57:39;101314.31;;;9.15;100.00
36234;BME280;43467;50.890;5.982;2023-02-03T13:02:49;101321.06;;;9.28;100.00
36234;BME280;43467;50.890;5.982;2023-02-03T13:05:22;101307.22;;;9.17;100.00
36234;BME280;43467;50.890;5.982;2023-02-03T13:07:58;101320.91;;;9.34;100.00
36234;BME280;43467;50.890;5.982;2023-02-03T13:10:32;101315.78;;;9.28;100.00
36234;BME280;43467;50.890;5.982;2023-02-03T13:13:02;101317.25;;;9.40;99.89
36234;BME280;43467;50.890;5.982;2023-02-03T13:15:45;101310.34;;;9.34;99.81
36234;BME280;43467;50.890;5.982;2023-02-03T13:18:30;101307.59;;;9.39;99.46
36234;BME280;43467;50.890;5.982;2023-02-03T13:20:57;101311.97;;;9.40;99.75
36234;BME280;43467;50.890;5.982;2023-02-03T13:23:22;101309.31;;;9.41;99.48
36234;BME280;43467;50.890;5.982;2023-02-03T13:25:52;101326.75;;;9.48;99.92
36234;BME280;43467;50.890;5.982;2023-02-03T13:31:21;101311.09;;;9.39;99.63
36234;BME280;43467;50.890;5.982;2023-02-03T13:42:18;101322.44;;;9.44;100.00
36234;BME280;43467;50.890;5.982;2023-02-03T13:44:46;101328.78;;;9.37;100.00
36234;BME280;43467;50.890;5.982;2023-02-03T13:47:18;101319.13;;;9.36;100.00
36234;BME280;43467;50.890;5.982;2023-02-03T13:49:51;101326.84;;;9.45;100.00
36234;BME280;43467;50.890;5.982;2023-02-03T13:52:47;101341.75;;;9.46;100.00
36234;BME280;43467;50.890;5.982;2023-02-03T13:55:32;101304.13;;;9.37;100.00
36234;BME280;43467;50.890;5.982;2023-02-03T13:58:00;101297.06;;;9.37;100.00
36234;BME280;43467;50.890;5.982;2023-02-03T14:03:39;101306.78;;;9.35;100.00
36234;BME280;43467;50.890;5.982;2023-02-03T14:06:04;101312.94;;;9.37;100.00
36234;BME280;43467;50.890;5.982;2023-02-03T14:16:39;101330.41;;;9.43;100.00
36234;BME280;43467;50.890;5.982;2023-02-03T14:19:10;101325.91;;;9.46;100.00
36234;BME280;43467;50.890;5.982;2023-02-03T14:21:38;101336.59;;;9.42;100.00
36234;BME280;43467;50.890;5.982;2023-02-03T14:24:09;101334.69;;;9.48;100.00
36234;BME280;43467;50.890;5.982;2023-02-03T14:26:41;101335.69;;;9.43;100.00
36234;BME280;43467;50.890;5.982;2023-02-03T14:29:09;101352.28;;;9.49;100.00
36234;BME280;43467;50.890;5.982;2023-02-03T14:31:56;101350.56;;;9.47;100.00
36234;BME280;43467;50.890;5.982;2023-02-03T14:34:37;101343.25;;;9.58;100.00
36234;BME280;43467;50.890;5.982;2023-02-03T14:48:11;101362.88;;;9.49;100.00